sensor_id;sensor_type;location;lat;lon;timestamp;pressure;altitude;pressure_sealevel;temperature
20289;BMP180;10303;51.960;8.372;2023-07-22T00:01:12;100286.00;;;16.10
20289;BMP180;10303;51.960;8.372;2023-07-22T00:03:38;100283.00;;;16.10
20289;BMP180;10303;51.960;8.372;2023-07-22T00:06:06;100289.00;;;16.00
20289;BMP180;10303;51.960;8.372;2023-07-22T00:08:34;100292.00;;;16.00
20289;BMP180;10303;51.960;8.372;2023-07-22T00:11:00;100294.00;;;16.00
20289;BMP180;10303;51.960;8.372;2023-07-22T00:13:26;100296.00;;;16.00
20289;BMP180;10303;51.960;8.372;2023-07-22T00:15:56;100291.00;;;15.90
20289;BMP180;10303;51.960;8.372;2023-07-22T00:18:26;100291.00;;;15.90
20289;BMP180;10303;51.960;8.372;2023-07-22T00:20:56;100292.00;;;15.90
20289;BMP180;10303;51.960;8.372;2023-07-22T00:23:23;100283.00;;;15.90
20289;BMP180;10303;51.960;8.372;2023-07-22T00:25:49;100280.00;;;15.90
20289;BMP180;10303;51.960;8.372;2023-07-22T00:28:15;100282.00;;;15.90
20289;BMP180;10303;51.960;8.372;2023-07-22T00:30:42;100289.00;;;15.90
20289;BMP180;10303;51.960;8.372;2023-07-22T00:33:08;100283.00;;;15.90
20289;BMP180;10303;51.960;8.372;2023-07-22T00:35:35;100288.00;;;15.90
20289;BMP180;10303;51.960;8.372;2023-07-22T00:38:01;100287.00;;;15.80
20289;BMP180;10303;51.960;8.372;2023-07-22T00:40:28;100288.00;;;15.80
20289;BMP180;10303;51.960;8.372;2023-07-22T00:42:57;100288.00;;;15.80
20289;BMP180;10303;51.960;8.372;2023-07-22T00:45:25;100287.00;;;15.80
20289;BMP180;10303;51.960;8.372;2023-07-22T00:47:51;100279.00;;;15.80
20289;BMP180;10303;51.960;8.372;2023-07-22T00:50:18;100285.00;;;15.80
20289;BMP180;10303;51.960;8.372;2023-07-22T00:52:44;100278.00;;;15.70
20289;BMP180;10303;51.960;8.372;2023-07-22T00:55:10;100283.00;;;15.70
20289;BMP180;10303;51.960;8.372;2023-07-22T00:57:36;100266.00;;;15.70
20289;BMP180;10303;51.960;8.372;2023-07-22T01:00:05;100281.00;;;15.70
20289;BMP180;10303;51.960;8.372;2023-07-22T01:02:32;100269.00;;;15.70
20289;BMP180;10303;51.960;8.372;2023-07-22T01:04:58;100274.00;;;15.70
20289;BMP180;10303;51.960;8.372;2023-07-22T01:07:24;100268.00;;;15.70
20289;BMP180;10303;51.960;8.372;2023-07-22T01:09:56;100266.00;;;15.70
20289;BMP180;10303;51.960;8.372;2023-07-22T01:12:24;100267.00;;;15.70
20289;BMP180;10303;51.960;8.372;2023-07-22T01:14:51;100259.00;;;15.70
20289;BMP180;10303;51.960;8.372;2023-07-22T01:17:18;100253.00;;;15.60
20289;BMP180;10303;51.960;8.372;2023-07-22T01:19:46;100251.00;;;15.60
20289;BMP180;10303;51.960;8.372;2023-07-22T01:22:13;100250.00;;;15.60
20289;BMP180;10303;51.960;8.372;2023-07-22T01:24:39;100259.00;;;15.60
20289;BMP180;10303;51.960;8.372;2023-07-22T01:27:11;100251.00;;;15.60
20289;BMP180;10303;51.960;8.372;2023-07-22T01:29:38;100259.00;;;15.60
20289;BMP180;10303;51.960;8.372;2023-07-22T01:32:04;100258.00;;;15.60
20289;BMP180;10303;51.960;8.372;2023-07-22T01:34:31;100258.00;;;15.60
20289;BMP180;10303;51.960;8.372;2023-07-22T01:36:57;100253.00;;;15.60
20289;BMP180;10303;51.960;8.372;2023-07-22T01:39:24;100257.00;;;15.50
20289;BMP180;10303;51.960;8.372;2023-07-22T01:41:50;100258.00;;;15.60
20289;BMP180;10303;51.960;8.372;2023-07-22T01:44:17;100249.00;;;15.50
20289;BMP180;10303;51.960;8.372;2023-07-22T01:46:43;100252.00;;;15.50
20289;BMP180;10303;51.960;8.372;2023-07-22T01:49:12;100245.00;;;15.50
20289;BMP180;10303;51.960;8.372;2023-07-22T01:51:39;100256.00;;;15.50
20289;BMP180;10303;51.960;8.372;2023-07-22T01:54:08;100249.00;;;15.50
20289;BMP180;10303;51.960;8.372;2023-07-22T01:56:36;100259.00;;;15.50
20289;BMP180;10303;51.960;8.372;2023-07-22T01:59:02;100257.00;;;15.50
20289;BMP180;10303;51.960;8.372;2023-07-22T02:01:29;100254.00;;;15.50
20289;BMP180;10303;51.960;8.372;2023-07-22T02:03:56;100258.00;;;15.50
20289;BMP180;10303;51.960;8.372;2023-07-22T02:06:23;100267.00;;;15.50
20289;BMP180;10303;51.960;8.372;2023-07-22T02:08:49;100261.00;;;15.60
20289;BMP180;10303;51.960;8.372;2023-07-22T02:11:17;100263.00;;;15.60
20289;BMP180;10303;51.960;8.372;2023-07-22T02:13:43;100264.00;;;15.60
20289;BMP180;10303;51.960;8.372;2023-07-22T02:16:09;100262.00;;;15.60
20289;BMP180;10303;51.960;8.372;2023-07-22T02:18:37;100268.00;;;15.60
20289;BMP180;10303;51.960;8.372;2023-07-22T02:21:04;100254.00;;;15.60
20289;BMP180;10303;51.960;8.372;2023-07-22T02:23:30;100257.00;;;15.60
20289;BMP180;10303;51.960;8.372;2023-07-22T02:25:56;100251.00;;;15.70
20289;BMP180;10303;51.960;8.372;2023-07-22T02:28:22;100261.00;;;15.70
20289;BMP180;10303;51.960;8.372;2023-07-22T02:30:51;100266.00;;;15.70
20289;BMP180;10303;51.960;8.372;2023-07-22T02:33:22;100262.00;;;15.70
20289;BMP180;10303;51.960;8.372;2023-07-22T02:35:48;100273.00;;;15.70
20289;BMP180;10303;51.960;8.372;2023-07-22T02:38:14;100265.00;;;15.70
20289;BMP180;10303;51.960;8.372;2023-07-22T02:40:41;100268.00;;;15.70
20289;BMP180;10303;51.960;8.372;2023-07-22T02:43:07;100258.00;;;15.80
20289;BMP180;10303;51.960;8.372;2023-07-22T02:45:34;100244.00;;;15.80
20289;BMP180;10303;51.960;8.372;2023-07-22T02:48:00;100260.00;;;15.80
20289;BMP180;10303;51.960;8.372;2023-07-22T02:50:26;100246.00;;;15.80
20289;BMP180;10303;51.960;8.372;2023-07-22T02:52:52;100244.00;;;15.80
20289;BMP180;10303;51.960;8.372;2023-07-22T02:55:18;100248.00;;;15.80
20289;BMP180;10303;51.960;8.372;2023-07-22T02:57:46;100258.00;;;15.80
20289;BMP180;10303;51.960;8.372;2023-07-22T03:00:16;100258.00;;;15.80
20289;BMP180;10303;51.960;8.372;2023-07-22T03:02:54;100255.00;;;15.80
20289;BMP180;10303;51.960;8.372;2023-07-22T03:05:28;100261.00;;;15.80
20289;BMP180;10303;51.960;8.372;2023-07-22T03:07:54;100252.00;;;15.80
20289;BMP180;10303;51.960;8.372;2023-07-22T03:10:20;100258.00;;;15.80
20289;BMP180;10303;51.960;8.372;2023-07-22T03:12:47;100256.00;;;15.80
20289;BMP180;10303;51.960;8.372;2023-07-22T03:15:13;100265.00;;;15.80
20289;BMP180;10303;51.960;8.372;2023-07-22T03:17:40;100259.00;;;15.80
20289;BMP180;10303;51.960;8.372;2023-07-22T03:20:09;100258.00;;;15.90
20289;BMP180;10303;51.960;8.372;2023-07-22T03:22:46;100265.00;;;15.90
20289;BMP180;10303;51.960;8.372;2023-07-22T03:25:15;100263.00;;;15.90
20289;BMP180;10303;51.960;8.372;2023-07-22T03:27:46;100263.00;;;15.90
20289;BMP180;10303;51.960;8.372;2023-07-22T03:30:15;100266.00;;;15.90
20289;BMP180;10303;51.960;8.372;2023-07-22T03:32:43;100270.00;;;15.90
20289;BMP180;10303;51.960;8.372;2023-07-22T03:35:10;100266.00;;;16.00
20289;BMP180;10303;51.960;8.372;2023-07-22T03:37:36;100277.00;;;16.00
20289;BMP180;10303;51.960;8.372;2023-07-22T03:40:12;100272.00;;;16.00
20289;BMP180;10303;51.960;8.372;2023-07-22T03:42:54;100273.00;;;16.00
20289;BMP180;10303;51.960;8.372;2023-07-22T03:45:23;100272.00;;;16.00
20289;BMP180;10303;51.960;8.372;2023-07-22T03:47:58;100281.00;;;16.00
20289;BMP180;10303;51.960;8.372;2023-07-22T03:50:25;100282.00;;;16.10
20289;BMP180;10303;51.960;8.372;2023-07-22T03:52:52;100275.00;;;16.10
20289;BMP180;10303;51.960;8.372;2023-07-22T03:55:18;100278.00;;;16.10
20289;BMP180;10303;51.960;8.372;2023-07-22T03:57:45;100277.00;;;16.10
20289;BMP180;10303;51.960;8.372;2023-07-22T04:00:11;100283.00;;;16.20
20289;BMP180;10303;51.960;8.372;2023-07-22T04:02:38;100282.00;;;16.20
20289;BMP180;10303;51.960;8.372;2023-07-22T04:05:05;100278.00;;;16.20
20289;BMP180;10303;51.960;8.372;2023-07-22T04:07:31;100281.00;;;16.20
20289;BMP180;10303;51.960;8.372;2023-07-22T04:09:57;100270.00;;;16.20
20289;BMP180;10303;51.960;8.372;2023-07-22T04:12:23;100281.00;;;16.30
20289;BMP180;10303;51.960;8.372;2023-07-22T04:14:49;100287.00;;;16.30
20289;BMP180;10303;51.960;8.372;2023-07-22T04:17:15;100280.00;;;16.30
20289;BMP180;10303;51.960;8.372;2023-07-22T04:19:42;100276.00;;;16.30
20289;BMP180;10303;51.960;8.372;2023-07-22T04:22:14;100288.00;;;16.30
20289;BMP180;10303;51.960;8.372;2023-07-22T04:24:40;100289.00;;;16.40
20289;BMP180;10303;51.960;8.372;2023-07-22T04:27:06;100288.00;;;16.40
20289;BMP180;10303;51.960;8.372;2023-07-22T04:29:33;100290.00;;;16.40
20289;BMP180;10303;51.960;8.372;2023-07-22T04:32:08;100288.00;;;16.40
20289;BMP180;10303;51.960;8.372;2023-07-22T04:34:35;100289.00;;;16.40
20289;BMP180;10303;51.960;8.372;2023-07-22T04:37:05;100285.00;;;16.50
20289;BMP180;10303;51.960;8.372;2023-07-22T04:39:31;100290.00;;;16.50
20289;BMP180;10303;51.960;8.372;2023-07-22T04:41:57;100293.00;;;16.50
20289;BMP180;10303;51.960;8.372;2023-07-22T04:44:23;100297.00;;;16.50
20289;BMP180;10303;51.960;8.372;2023-07-22T04:46:49;100309.00;;;16.60
20289;BMP180;10303;51.960;8.372;2023-07-22T04:49:18;100308.00;;;16.60
20289;BMP180;10303;51.960;8.372;2023-07-22T04:51:47;100302.00;;;16.60
20289;BMP180;10303;51.960;8.372;2023-07-22T04:54:14;100301.00;;;16.60
20289;BMP180;10303;51.960;8.372;2023-07-22T04:56:42;100317.00;;;16.60
20289;BMP180;10303;51.960;8.372;2023-07-22T04:59:08;100311.00;;;16.60
20289;BMP180;10303;51.960;8.372;2023-07-22T05:01:35;100302.00;;;16.70
20289;BMP180;10303;51.960;8.372;2023-07-22T05:04:01;100307.00;;;16.70
20289;BMP180;10303;51.960;8.372;2023-07-22T05:06:28;100310.00;;;16.70
20289;BMP180;10303;51.960;8.372;2023-07-22T05:08:54;100308.00;;;16.80
20289;BMP180;10303;51.960;8.372;2023-07-22T05:11:20;100304.00;;;16.80
20289;BMP180;10303;51.960;8.372;2023-07-22T05:13:48;100308.00;;;16.80
20289;BMP180;10303;51.960;8.372;2023-07-22T05:16:14;100298.00;;;16.90
20289;BMP180;10303;51.960;8.372;2023-07-22T05:18:40;100309.00;;;16.90
20289;BMP180;10303;51.960;8.372;2023-07-22T05:21:07;100304.00;;;17.00
20289;BMP180;10303;51.960;8.372;2023-07-22T05:23:33;100307.00;;;17.00
20289;BMP180;10303;51.960;8.372;2023-07-22T05:25:59;100313.00;;;17.10
20289;BMP180;10303;51.960;8.372;2023-07-22T05:28:25;100311.00;;;17.10
20289;BMP180;10303;51.960;8.372;2023-07-22T05:30:51;100320.00;;;17.20
20289;BMP180;10303;51.960;8.372;2023-07-22T05:33:17;100310.00;;;17.20
20289;BMP180;10303;51.960;8.372;2023-07-22T05:35:43;100314.00;;;17.20
20289;BMP180;10303;51.960;8.372;2023-07-22T05:38:09;100318.00;;;17.30
20289;BMP180;10303;51.960;8.372;2023-07-22T05:40:35;100306.00;;;17.30
20289;BMP180;10303;51.960;8.372;2023-07-22T05:43:01;100324.00;;;17.40
20289;BMP180;10303;51.960;8.372;2023-07-22T05:45:27;100332.00;;;17.40
20289;BMP180;10303;51.960;8.372;2023-07-22T05:47:52;100325.00;;;17.50
20289;BMP180;10303;51.960;8.372;2023-07-22T05:50:18;100324.00;;;17.50
20289;BMP180;10303;51.960;8.372;2023-07-22T05:52:44;100330.00;;;17.60
20289;BMP180;10303;51.960;8.372;2023-07-22T05:55:11;100326.00;;;17.60
20289;BMP180;10303;51.960;8.372;2023-07-22T05:57:37;100319.00;;;17.60
20289;BMP180;10303;51.960;8.372;2023-07-22T06:00:03;100326.00;;;17.70
20289;BMP180;10303;51.960;8.372;2023-07-22T06:02:38;100321.00;;;17.70
20289;BMP180;10303;51.960;8.372;2023-07-22T06:05:04;100323.00;;;17.70
20289;BMP180;10303;51.960;8.372;2023-07-22T06:07:30;100323.00;;;17.70
20289;BMP180;10303;51.960;8.372;2023-07-22T06:09:56;100316.00;;;17.70
20289;BMP180;10303;51.960;8.372;2023-07-22T06:12:22;100308.00;;;17.70
20289;BMP180;10303;51.960;8.372;2023-07-22T06:14:47;100322.00;;;17.70
20289;BMP180;10303;51.960;8.372;2023-07-22T06:17:13;100322.00;;;17.80
20289;BMP180;10303;51.960;8.372;2023-07-22T06:19:40;100331.00;;;17.80
20289;BMP180;10303;51.960;8.372;2023-07-22T06:22:06;100331.00;;;17.80
20289;BMP180;10303;51.960;8.372;2023-07-22T06:24:32;100335.00;;;17.90
20289;BMP180;10303;51.960;8.372;2023-07-22T06:26:58;100325.00;;;18.00
20289;BMP180;10303;51.960;8.372;2023-07-22T06:29:24;100315.00;;;18.00
20289;BMP180;10303;51.960;8.372;2023-07-22T06:31:50;100315.00;;;18.10
20289;BMP180;10303;51.960;8.372;2023-07-22T06:34:16;100323.00;;;18.20
20289;BMP180;10303;51.960;8.372;2023-07-22T06:36:41;100322.00;;;18.20
20289;BMP180;10303;51.960;8.372;2023-07-22T06:39:07;100318.00;;;18.30
20289;BMP180;10303;51.960;8.372;2023-07-22T06:41:34;100317.00;;;18.40
20289;BMP180;10303;51.960;8.372;2023-07-22T06:44:00;100296.00;;;18.40
20289;BMP180;10303;51.960;8.372;2023-07-22T06:46:25;100304.00;;;18.50
20289;BMP180;10303;51.960;8.372;2023-07-22T06:48:51;100302.00;;;18.50
20289;BMP180;10303;51.960;8.372;2023-07-22T06:51:17;100320.00;;;18.60
20289;BMP180;10303;51.960;8.372;2023-07-22T06:53:43;100318.00;;;18.70
20289;BMP180;10303;51.960;8.372;2023-07-22T06:56:09;100315.00;;;18.70
20289;BMP180;10303;51.960;8.372;2023-07-22T06:58:35;100322.00;;;18.80
20289;BMP180;10303;51.960;8.372;2023-07-22T07:01:01;100320.00;;;18.90
20289;BMP180;10303;51.960;8.372;2023-07-22T07:03:27;100325.00;;;18.90
20289;BMP180;10303;51.960;8.372;2023-07-22T07:05:57;100333.00;;;19.00
20289;BMP180;10303;51.960;8.372;2023-07-22T07:08:24;100336.00;;;19.00
20289;BMP180;10303;51.960;8.372;2023-07-22T07:10:50;100334.00;;;19.10
20289;BMP180;10303;51.960;8.372;2023-07-22T07:13:17;100334.00;;;19.10
20289;BMP180;10303;51.960;8.372;2023-07-22T07:15:48;100335.00;;;19.20
20289;BMP180;10303;51.960;8.372;2023-07-22T07:18:14;100334.00;;;19.30
20289;BMP180;10303;51.960;8.372;2023-07-22T07:20:40;100330.00;;;19.40
20289;BMP180;10303;51.960;8.372;2023-07-22T07:23:06;100335.00;;;19.40
20289;BMP180;10303;51.960;8.372;2023-07-22T07:25:32;100331.00;;;19.40
20289;BMP180;10303;51.960;8.372;2023-07-22T07:27:58;100333.00;;;19.30
20289;BMP180;10303;51.960;8.372;2023-07-22T07:30:24;100331.00;;;19.40
20289;BMP180;10303;51.960;8.372;2023-07-22T07:32:50;100322.00;;;19.40
20289;BMP180;10303;51.960;8.372;2023-07-22T07:35:16;100326.00;;;19.50
20289;BMP180;10303;51.960;8.372;2023-07-22T07:37:42;100331.00;;;19.50
20289;BMP180;10303;51.960;8.372;2023-07-22T07:40:08;100325.00;;;19.60
20289;BMP180;10303;51.960;8.372;2023-07-22T07:42:35;100332.00;;;19.60
20289;BMP180;10303;51.960;8.372;2023-07-22T07:45:01;100333.00;;;19.70
20289;BMP180;10303;51.960;8.372;2023-07-22T07:47:27;100333.00;;;19.80
20289;BMP180;10303;51.960;8.372;2023-07-22T07:49:53;100334.00;;;19.90
20289;BMP180;10303;51.960;8.372;2023-07-22T07:52:19;100321.00;;;20.00
20289;BMP180;10303;51.960;8.372;2023-07-22T07:54:44;100320.00;;;20.00
20289;BMP180;10303;51.960;8.372;2023-07-22T07:57:10;100321.00;;;20.00
20289;BMP180;10303;51.960;8.372;2023-07-22T07:59:36;100316.00;;;20.10
20289;BMP180;10303;51.960;8.372;2023-07-22T08:02:02;100320.00;;;20.20
20289;BMP180;10303;51.960;8.372;2023-07-22T08:04:35;100323.00;;;20.40
20289;BMP180;10303;51.960;8.372;2023-07-22T08:07:01;100325.00;;;20.50
20289;BMP180;10303;51.960;8.372;2023-07-22T08:09:27;100330.00;;;20.60
20289;BMP180;10303;51.960;8.372;2023-07-22T08:11:53;100340.00;;;20.70
20289;BMP180;10303;51.960;8.372;2023-07-22T08:14:19;100340.00;;;20.80
20289;BMP180;10303;51.960;8.372;2023-07-22T08:16:45;100345.00;;;20.90
20289;BMP180;10303;51.960;8.372;2023-07-22T08:19:11;100332.00;;;21.10
20289;BMP180;10303;51.960;8.372;2023-07-22T08:21:37;100336.00;;;21.20
20289;BMP180;10303;51.960;8.372;2023-07-22T08:24:04;100339.00;;;21.30
20289;BMP180;10303;51.960;8.372;2023-07-22T08:26:31;100339.00;;;21.40
20289;BMP180;10303;51.960;8.372;2023-07-22T08:28:57;100345.00;;;21.40
20289;BMP180;10303;51.960;8.372;2023-07-22T08:31:23;100335.00;;;21.50
20289;BMP180;10303;51.960;8.372;2023-07-22T08:33:49;100347.00;;;21.60
20289;BMP180;10303;51.960;8.372;2023-07-22T08:36:15;100342.00;;;21.60
20289;BMP180;10303;51.960;8.372;2023-07-22T08:38:41;100343.00;;;21.70
20289;BMP180;10303;51.960;8.372;2023-07-22T08:41:14;100340.00;;;21.80
20289;BMP180;10303;51.960;8.372;2023-07-22T08:43:41;100340.00;;;22.00
20289;BMP180;10303;51.960;8.372;2023-07-22T08:46:09;100347.00;;;22.20
20289;BMP180;10303;51.960;8.372;2023-07-22T08:48:41;100350.00;;;22.30
20289;BMP180;10303;51.960;8.372;2023-07-22T08:51:17;100344.00;;;22.40
20289;BMP180;10303;51.960;8.372;2023-07-22T08:53:44;100341.00;;;22.60
20289;BMP180;10303;51.960;8.372;2023-07-22T08:56:11;100342.00;;;22.70
20289;BMP180;10303;51.960;8.372;2023-07-22T08:58:38;100337.00;;;22.80
20289;BMP180;10303;51.960;8.372;2023-07-22T09:01:05;100341.00;;;22.80
20289;BMP180;10303;51.960;8.372;2023-07-22T09:03:32;100344.00;;;22.80
20289;BMP180;10303;51.960;8.372;2023-07-22T09:05:59;100343.00;;;22.90
20289;BMP180;10303;51.960;8.372;2023-07-22T09:08:25;100345.00;;;22.90
20289;BMP180;10303;51.960;8.372;2023-07-22T09:10:52;100343.00;;;23.00
20289;BMP180;10303;51.960;8.372;2023-07-22T09:13:19;100340.00;;;23.00
20289;BMP180;10303;51.960;8.372;2023-07-22T09:15:46;100344.00;;;23.10
20289;BMP180;10303;51.960;8.372;2023-07-22T09:18:13;100347.00;;;23.20
20289;BMP180;10303;51.960;8.372;2023-07-22T09:20:41;100350.00;;;23.20
20289;BMP180;10303;51.960;8.372;2023-07-22T09:23:08;100346.00;;;23.10
20289;BMP180;10303;51.960;8.372;2023-07-22T09:25:34;100350.00;;;23.10
20289;BMP180;10303;51.960;8.372;2023-07-22T09:28:00;100350.00;;;23.10
20289;BMP180;10303;51.960;8.372;2023-07-22T09:30:34;100355.00;;;23.00
20289;BMP180;10303;51.960;8.372;2023-07-22T09:33:03;100334.00;;;23.10
20289;BMP180;10303;51.960;8.372;2023-07-22T09:38:06;100335.00;;;23.20
20289;BMP180;10303;51.960;8.372;2023-07-22T09:40:32;100335.00;;;23.10
20289;BMP180;10303;51.960;8.372;2023-07-22T09:43:02;100345.00;;;23.10
20289;BMP180;10303;51.960;8.372;2023-07-22T09:45:30;100326.00;;;23.00
20289;BMP180;10303;51.960;8.372;2023-07-22T09:47:58;100330.00;;;23.00
20289;BMP180;10303;51.960;8.372;2023-07-22T09:50:26;100326.00;;;23.00
20289;BMP180;10303;51.960;8.372;2023-07-22T09:52:57;100317.00;;;23.10
20289;BMP180;10303;51.960;8.372;2023-07-22T09:55:27;100324.00;;;23.20
20289;BMP180;10303;51.960;8.372;2023-07-22T09:58:02;100335.00;;;23.40
20289;BMP180;10303;51.960;8.372;2023-07-22T10:00:31;100324.00;;;23.40
20289;BMP180;10303;51.960;8.372;2023-07-22T10:03:00;100323.00;;;23.50
20289;BMP180;10303;51.960;8.372;2023-07-22T10:05:28;100326.00;;;23.50
20289;BMP180;10303;51.960;8.372;2023-07-22T10:07:57;100315.00;;;23.50
20289;BMP180;10303;51.960;8.372;2023-07-22T10:10:31;100315.00;;;23.60
20289;BMP180;10303;51.960;8.372;2023-07-22T10:12:58;100308.00;;;23.70
20289;BMP180;10303;51.960;8.372;2023-07-22T10:15:28;100312.00;;;23.90
20289;BMP180;10303;51.960;8.372;2023-07-22T10:17:56;100297.00;;;24.00
20289;BMP180;10303;51.960;8.372;2023-07-22T10:20:24;100297.00;;;24.20
20289;BMP180;10303;51.960;8.372;2023-07-22T10:22:51;100302.00;;;24.40
20289;BMP180;10303;51.960;8.372;2023-07-22T10:25:19;100296.00;;;24.70
20289;BMP180;10303;51.960;8.372;2023-07-22T10:27:50;100295.00;;;24.90
20289;BMP180;10303;51.960;8.372;2023-07-22T10:30:17;100300.00;;;25.10
20289;BMP180;10303;51.960;8.372;2023-07-22T10:32:52;100288.00;;;25.40
20289;BMP180;10303;51.960;8.372;2023-07-22T10:38:14;100300.00;;;25.90
20289;BMP180;10303;51.960;8.372;2023-07-22T10:40:51;100297.00;;;26.00
20289;BMP180;10303;51.960;8.372;2023-07-22T10:43:32;100288.00;;;26.10
20289;BMP180;10303;51.960;8.372;2023-07-22T10:46:12;100293.00;;;26.10
20289;BMP180;10303;51.960;8.372;2023-07-22T10:48:42;100285.00;;;26.10
20289;BMP180;10303;51.960;8.372;2023-07-22T10:51:13;100284.00;;;26.00
20289;BMP180;10303;51.960;8.372;2023-07-22T10:53:47;100289.00;;;26.00
20289;BMP180;10303;51.960;8.372;2023-07-22T10:56:21;100284.00;;;25.90
20289;BMP180;10303;51.960;8.372;2023-07-22T11:11:59;100275.00;;;25.40
20289;BMP180;10303;51.960;8.372;2023-07-22T11:14:29;100268.00;;;25.40
20289;BMP180;10303;51.960;8.372;2023-07-22T11:17:01;100263.00;;;25.30
20289;BMP180;10303;51.960;8.372;2023-07-22T11:19:29;100262.00;;;25.20
20289;BMP180;10303;51.960;8.372;2023-07-22T11:21:57;100261.00;;;25.10
20289;BMP180;10303;51.960;8.372;2023-07-22T11:24:25;100263.00;;;25.10
20289;BMP180;10303;51.960;8.372;2023-07-22T11:26:52;100262.00;;;25.20
20289;BMP180;10303;51.960;8.372;2023-07-22T11:29:19;100267.00;;;25.20
20289;BMP180;10303;51.960;8.372;2023-07-22T11:31:50;100258.00;;;25.30
20289;BMP180;10303;51.960;8.372;2023-07-22T11:34:23;100262.00;;;25.30
20289;BMP180;10303;51.960;8.372;2023-07-22T11:36:52;100240.00;;;25.40
20289;BMP180;10303;51.960;8.372;2023-07-22T11:39:21;100244.00;;;25.30
20289;BMP180;10303;51.960;8.372;2023-07-22T11:41:48;100255.00;;;25.30
20289;BMP180;10303;51.960;8.372;2023-07-22T11:44:21;100242.00;;;25.30
20289;BMP180;10303;51.960;8.372;2023-07-22T11:47:03;100245.00;;;25.30
20289;BMP180;10303;51.960;8.372;2023-07-22T11:49:35;100243.00;;;25.30
20289;BMP180;10303;51.960;8.372;2023-07-22T11:52:09;100245.00;;;25.30
20289;BMP180;10303;51.960;8.372;2023-07-22T11:54:41;100250.00;;;25.30
20289;BMP180;10303;51.960;8.372;2023-07-22T11:57:13;100242.00;;;25.30
20289;BMP180;10303;51.960;8.372;2023-07-22T11:59:48;100242.00;;;25.30
20289;BMP180;10303;51.960;8.372;2023-07-22T12:02:27;100241.00;;;25.30
20289;BMP180;10303;51.960;8.372;2023-07-22T12:05:03;100234.00;;;25.30
20289;BMP180;10303;51.960;8.372;2023-07-22T12:07:33;100236.00;;;25.30
20289;BMP180;10303;51.960;8.372;2023-07-22T12:10:06;100237.00;;;25.40
20289;BMP180;10303;51.960;8.372;2023-07-22T12:12:45;100228.00;;;25.40
20289;BMP180;10303;51.960;8.372;2023-07-22T12:15:18;100250.00;;;25.40
20289;BMP180;10303;51.960;8.372;2023-07-22T12:17:59;100244.00;;;25.50
20289;BMP180;10303;51.960;8.372;2023-07-22T12:20:31;100236.00;;;25.50
20289;BMP180;10303;51.960;8.372;2023-07-22T12:22:58;100248.00;;;25.60
20289;BMP180;10303;51.960;8.372;2023-07-22T12:25:25;100239.00;;;25.60
20289;BMP180;10303;51.960;8.372;2023-07-22T12:27:51;100234.00;;;25.60
20289;BMP180;10303;51.960;8.372;2023-07-22T12:30:17;100236.00;;;25.60
20289;BMP180;10303;51.960;8.372;2023-07-22T12:32:44;100229.00;;;25.60
20289;BMP180;10303;51.960;8.372;2023-07-22T12:35:12;100246.00;;;25.60
20289;BMP180;10303;51.960;8.372;2023-07-22T12:37:40;100235.00;;;25.60
20289;BMP180;10303;51.960;8.372;2023-07-22T12:40:06;100229.00;;;25.60
20289;BMP180;10303;51.960;8.372;2023-07-22T12:42:35;100216.00;;;25.60
20289;BMP180;10303;51.960;8.372;2023-07-22T12:45:04;100226.00;;;25.70
20289;BMP180;10303;51.960;8.372;2023-07-22T12:47:30;100222.00;;;25.80
20289;BMP180;10303;51.960;8.372;2023-07-22T12:49:56;100227.00;;;25.90
20289;BMP180;10303;51.960;8.372;2023-07-22T12:52:22;100215.00;;;25.90
20289;BMP180;10303;51.960;8.372;2023-07-22T12:54:48;100213.00;;;25.90
20289;BMP180;10303;51.960;8.372;2023-07-22T12:57:13;100218.00;;;25.90
20289;BMP180;10303;51.960;8.372;2023-07-22T12:59:39;100217.00;;;25.90
20289;BMP180;10303;51.960;8.372;2023-07-22T13:02:06;100215.00;;;26.00
20289;BMP180;10303;51.960;8.372;2023-07-22T13:04:32;100216.00;;;26.20
20289;BMP180;10303;51.960;8.372;2023-07-22T13:06:58;100218.00;;;26.30
20289;BMP180;10303;51.960;8.372;2023-07-22T13:09:24;100211.00;;;26.30
20289;BMP180;10303;51.960;8.372;2023-07-22T13:11:50;100210.00;;;26.40
20289;BMP180;10303;51.960;8.372;2023-07-22T13:14:16;100200.00;;;26.50
20289;BMP180;10303;51.960;8.372;2023-07-22T13:16:44;100206.00;;;26.60
20289;BMP180;10303;51.960;8.372;2023-07-22T13:19:35;100203.00;;;26.50
20289;BMP180;10303;51.960;8.372;2023-07-22T13:22:01;100203.00;;;26.50
20289;BMP180;10303;51.960;8.372;2023-07-22T13:24:26;100200.00;;;26.60
20289;BMP180;10303;51.960;8.372;2023-07-22T13:26:53;100186.00;;;26.60
20289;BMP180;10303;51.960;8.372;2023-07-22T13:29:19;100196.00;;;26.60
20289;BMP180;10303;51.960;8.372;2023-07-22T13:31:45;100193.00;;;26.70
20289;BMP180;10303;51.960;8.372;2023-07-22T13:34:11;100193.00;;;26.80
20289;BMP180;10303;51.960;8.372;2023-07-22T13:36:37;100190.00;;;26.90
20289;BMP180;10303;51.960;8.372;2023-07-22T13:39:03;100186.00;;;26.90
20289;BMP180;10303;51.960;8.372;2023-07-22T13:41:29;100183.00;;;26.90
20289;BMP180;10303;51.960;8.372;2023-07-22T13:43:55;100178.00;;;26.90
20289;BMP180;10303;51.960;8.372;2023-07-22T13:46:21;100176.00;;;27.00
20289;BMP180;10303;51.960;8.372;2023-07-22T13:48:48;100181.00;;;27.00
20289;BMP180;10303;51.960;8.372;2023-07-22T13:51:16;100173.00;;;27.10
20289;BMP180;10303;51.960;8.372;2023-07-22T13:53:46;100177.00;;;27.10
20289;BMP180;10303;51.960;8.372;2023-07-22T13:56:12;100173.00;;;27.20
20289;BMP180;10303;51.960;8.372;2023-07-22T13:58:38;100184.00;;;27.20
20289;BMP180;10303;51.960;8.372;2023-07-22T14:01:04;100176.00;;;27.20
20289;BMP180;10303;51.960;8.372;2023-07-22T14:03:29;100156.00;;;27.20
20289;BMP180;10303;51.960;8.372;2023-07-22T14:05:56;100171.00;;;27.20
20289;BMP180;10303;51.960;8.372;2023-07-22T14:08:22;100168.00;;;27.20
20289;BMP180;10303;51.960;8.372;2023-07-22T14:10:48;100165.00;;;27.20
20289;BMP180;10303;51.960;8.372;2023-07-22T14:13:14;100166.00;;;27.10
20289;BMP180;10303;51.960;8.372;2023-07-22T14:15:41;100162.00;;;27.10
20289;BMP180;10303;51.960;8.372;2023-07-22T14:18:07;100157.00;;;27.10